Terminal Aerodrome Forecast
Issued by NWS

Home | Current Version | Previous Version | Text Only | Print | Product List | Glossary On
Versions: 1 2 3 4 5 6 7 8 9 10 11 12 13 14 15 16 17 18 19
000
FTUS43 KDLH 181720
TAFBRD
TAF
KBRD 181720Z 1818/1918 28007KT P6SM SCT050 BKN100
     FM181900 28008KT P6SM VCTS SCT050CB BKN100
     FM182300 27007KT P6SM VCSH SCT050 BKN100
     FM190100 26006KT P6SM BKN100
     FM190900 00000KT 4SM BR FEW110
     FM191100 00000KT 3SM BR FEW080
     FM191400 VRB03KT P6SM FEW110=

USA.gov is the U.S. government's official web portal to all federal, state and local government web resources and services.